Time;durP1;ratioP1;P1;durP2;ratioP2;P2;SDS_P1;SDS_P2;PMS_P1;PMS_P2;Temp;Humidity;BMP_temperature;BMP_pressure;BME280_temperature;BME280_humidity;BME280_pressure;Samples;Min_cycle;Max_cycle;Signal;HPM_P1;HPM_P2
2021/09/21 00:02:17;;;;;;;8.15;7.13;;;15.20;71.00;;;15.32;57.40;98289.41;5046324;28;20375;-36
2021/09/21 00:04:45;;;;;;;8.55;7.38;;;15.10;71.00;;;15.31;57.39;98286.91;5045665;28;20075;-36
2021/09/21 00:07:13;;;;;;;8.80;6.78;;;15.20;71.00;;;15.32;57.50;98288.59;5044787;28;20047;-36
2021/09/21 00:09:41;;;;;;;9.02;6.95;;;15.20;71.10;;;15.34;57.60;98299.97;5046792;28;20258;-36
2021/09/21 00:12:08;;;;;;;9.10;7.07;;;15.20;71.20;;;15.34;57.61;98295.44;5045777;28;20052;-36
2021/09/21 00:14:38;;;;;;;9.18;7.32;;;15.20;71.20;;;15.33;57.48;98295.59;5044948;28;20049;-36
2021/09/21 00:17:06;;;;;;;7.93;6.75;;;15.20;71.30;;;15.31;57.36;98293.09;5044671;28;20064;-36
2021/09/21 00:19:33;;;;;;;9.13;7.07;;;15.20;71.30;;;15.32;57.29;98299.31;5046342;28;20055;-36
2021/09/21 00:22:02;;;;;;;9.40;7.22;;;15.10;71.00;;;15.31;57.31;98297.63;5045332;28;20355;-36
2021/09/21 00:24:30;;;;;;;10.07;6.97;;;15.10;71.10;;;15.29;57.07;98302.34;5044169;28;20057;-36
2021/09/21 00:26:58;;;;;;;11.43;7.55;;;15.10;70.80;;;15.24;57.06;98308.22;5045201;28;20064;-36
2021/09/21 00:29:27;;;;;;;9.60;6.93;;;15.10;70.60;;;15.21;57.06;98305.88;5043603;28;20374;-36
2021/09/21 00:32:00;;;;;;;10.77;7.32;;;15.00;70.50;;;15.21;56.96;98319.31;5045716;28;20225;-36
2021/09/21 00:34:38;;;;;;;8.25;7.20;;;15.00;70.60;;;15.14;56.83;98312.94;5045608;28;20238;-36
2021/09/21 00:37:09;;;;;;;9.55;7.57;;;14.90;70.50;;;15.09;57.06;98313.47;5043607;28;20079;-36
2021/09/21 00:39:38;;;;;;;7.60;6.72;;;14.90;70.80;;;15.09;57.02;98313.47;5044894;28;20052;-36
2021/09/21 00:42:07;;;;;;;9.23;7.05;;;14.90;70.70;;;15.10;56.99;98311.63;5044341;28;20071;-36
2021/09/21 00:44:36;;;;;;;10.73;7.13;;;14.90;70.50;;;15.11;56.79;98316.00;5042862;28;20240;-36
2021/09/21 00:47:07;;;;;;;10.02;7.95;;;14.90;70.40;;;15.11;56.84;98310.63;5042846;28;20051;-36
2021/09/21 00:49:36;;;;;;;8.20;6.80;;;14.90;70.20;;;15.10;56.71;98306.28;5045625;28;20045;-36
2021/09/21 00:52:05;;;;;;;9.25;6.72;;;14.90;70.10;;;15.06;57.04;98308.50;5042596;28;20052;-36
2021/09/21 00:54:32;;;;;;;9.63;6.80;;;14.90;70.30;;;15.06;56.82;98313.00;5045315;28;20083;-36
2021/09/21 00:57:01;;;;;;;8.15;6.63;;;15.00;70.00;;;15.06;56.82;98313.00;5045406;28;20598;-36
2021/09/21 00:59:29;;;;;;;8.73;7.00;;;14.90;70.00;;;15.04;56.58;98312.34;5044585;28;20048;-36
2021/09/21 01:01:56;;;;;;;10.15;7.60;;;14.90;70.00;;;14.98;56.81;98315.72;5045291;28;20263;-36
2021/09/21 01:04:24;;;;;;;7.55;6.75;;;14.80;70.00;;;14.95;56.47;98316.91;5045453;28;20654;-36
2021/09/21 01:06:52;;;;;;;14.45;7.63;;;14.70;69.90;;;14.90;56.46;98312.03;5044039;28;20812;-36
2021/09/21 01:09:27;;;;;;;7.47;6.72;;;14.70;69.60;;;14.87;56.63;98320.44;5042472;28;20067;-36
2021/09/21 01:11:59;;;;;;;9.95;8.00;;;14.70;70.20;;;14.87;56.75;98322.25;5045095;28;20063;-36
2021/09/21 01:14:27;;;;;;;9.15;7.55;;;14.70;70.30;;;14.86;56.72;98324.13;5045469;28;20421;-36
2021/09/21 01:16:55;;;;;;;9.50;7.45;;;14.70;70.30;;;14.83;56.82;98316.44;5043872;28;20055;-36
2021/09/21 01:19:24;;;;;;;7.88;7.07;;;14.70;70.20;;;14.85;56.90;98316.25;5044565;28;20074;-36
2021/09/21 01:21:53;;;;;;;9.65;7.47;;;14.60;70.30;;;14.84;56.82;98318.09;5045178;28;20063;-36
2021/09/21 01:24:22;;;;;;;10.65;7.35;;;14.70;70.20;;;14.83;56.54;98318.25;5046023;28;20389;-36
2021/09/21 01:26:50;;;;;;;8.23;7.20;;;14.70;70.10;;;14.82;56.77;98320.13;5045020;28;20075;-36
2021/09/21 01:29:18;;;;;;;9.57;7.28;;;14.70;70.30;;;14.79;56.64;98323.13;5043320;28;20331;-36
2021/09/21 01:31:46;;;;;;;7.82;6.55;;;14.70;70.10;;;14.79;56.72;98317.75;5043934;28;20072;-36
2021/09/21 01:34:18;;;;;;;7.68;6.30;;;14.70;70.00;;;14.81;56.73;98323.81;5043979;28;20347;-36
2021/09/21 01:36:47;;;;;;;11.35;7.50;;;14.70;70.00;;;14.80;56.70;98316.75;5043869;28;20438;-36
2021/09/21 01:39:15;;;;;;;8.65;6.50;;;14.70;70.00;;;14.84;56.82;98317.25;5044482;28;20051;-36
2021/09/21 01:41:44;;;;;;;10.15;7.28;;;14.60;70.10;;;14.84;56.80;98317.25;5044573;28;20063;-37
2021/09/21 01:44:15;;;;;;;7.68;6.40;;;14.70;70.20;;;14.84;56.89;98320.78;5044261;28;20061;-37
2021/09/21 01:46:45;;;;;;;9.57;7.32;;;14.70;70.10;;;14.86;56.69;98321.44;5043718;28;20061;-37
2021/09/21 01:49:15;;;;;;;8.65;7.03;;;14.70;70.10;;;14.85;56.61;98325.13;5043746;28;20051;-37
2021/09/21 01:52:03;;;;;;;8.75;6.63;;;14.70;69.90;;;14.85;56.58;98318.91;5043853;28;20063;-37
2021/09/21 01:59:57;;;;;;;7.45;6.35;;;14.70;70.00;;;14.86;56.65;98318.75;5049491;28;20060;-36
2021/09/21 02:02:25;;;;;;;8.60;7.15;;;14.70;69.90;;;14.85;56.56;98321.59;5045287;28;20355;-37
2021/09/21 02:04:53;;;;;;;10.25;7.30;;;14.60;69.90;;;14.82;56.41;98316.59;5047044;28;20241;-37
2021/09/21 02:07:21;;;;;;;7.43;6.40;;;14.60;69.90;;;14.77;56.73;98317.97;5047215;28;20059;-37
2021/09/21 02:09:48;;;;;;;8.65;7.25;;;14.60;70.20;;;14.75;56.71;98319.97;5047630;28;20543;-37
2021/09/21 02:12:16;;;;;;;8.13;7.25;;;14.60;70.40;;;14.74;57.04;98320.97;5048101;28;20053;-37
2021/09/21 02:14:44;;;;;;;8.15;7.10;;;14.50;70.70;;;14.74;57.06;98325.50;5046528;28;20051;-36
2021/09/21 02:17:12;;;;;;;10.18;7.40;;;14.60;70.70;;;14.74;56.84;98329.00;5046675;28;20049;-36
2021/09/21 02:19:40;;;;;;;11.23;8.05;;;14.60;70.50;;;14.74;57.12;98325.50;5047789;28;20057;-37
2021/09/21 02:22:08;;;;;;;8.70;7.38;;;14.60;70.70;;;14.73;56.87;98315.78;5047161;28;20055;-36
2021/09/21 02:24:36;;;;;;;10.10;7.60;;;14.60;70.80;;;14.69;57.02;98309.91;5045859;28;20064;-37
2021/09/21 02:27:04;;;;;;;10.55;8.40;;;14.50;70.80;;;14.67;57.00;98319.13;5046520;28;20063;-37
2021/09/21 02:29:32;;;;;;;7.90;6.90;;;14.40;70.80;;;14.65;56.92;98323.84;5063014;28;20049;-36
2021/09/21 02:32:00;;;;;;;10.43;7.55;;;14.40;70.70;;;14.61;56.96;98328.69;5047200;28;20075;-36
2021/09/21 02:34:27;;;;;;;9.38;8.23;;;14.40;70.80;;;14.59;57.12;98329.88;5046540;28;20061;-37
2021/09/21 02:36:55;;;;;;;10.05;7.47;;;14.30;71.00;;;14.55;56.81;98329.34;5047055;28;20045;-37
2021/09/21 02:39:23;;;;;;;8.32;7.22;;;14.30;71.00;;;14.50;56.92;98327.19;5046556;28;20278;-36
2021/09/21 02:41:51;;;;;;;9.85;7.53;;;14.20;71.00;;;14.46;56.88;98336.56;5045772;28;20045;-37
2021/09/21 02:44:19;;;;;;;9.60;7.75;;;14.20;71.10;;;14.42;57.05;98339.75;5046457;28;20270;-37
2021/09/21 02:46:46;;;;;;;8.60;6.80;;;14.20;71.00;;;14.37;56.96;98343.75;5046603;28;20059;-37
2021/09/21 02:49:14;;;;;;;8.43;7.28;;;14.10;71.00;;;14.35;57.06;98334.22;5047849;28;20447;-37
2021/09/21 02:51:42;;;;;;;9.00;7.20;;;14.10;71.20;;;14.32;57.09;98337.25;5045934;28;20059;-37
2021/09/21 02:54:11;;;;;;;10.38;7.47;;;14.10;71.30;;;14.29;57.08;98335.75;5046882;28;20271;-37
2021/09/21 02:56:38;;;;;;;9.10;6.80;;;14.10;71.20;;;14.27;57.02;98332.41;5046550;28;20491;-37
2021/09/21 02:59:06;;;;;;;8.30;7.20;;;14.00;71.10;;;14.26;57.27;98336.06;5046788;28;20048;-37
2021/09/21 03:01:34;;;;;;;9.25;7.63;;;14.00;71.20;;;14.25;57.24;98329.06;5046580;28;20385;-37
2021/09/21 03:04:07;;;;;;;9.88;7.28;;;14.00;71.20;;;14.23;57.17;98333.75;5045897;28;20061;-37
2021/09/21 03:06:40;;;;;;;9.00;7.35;;;14.00;71.70;;;14.21;57.12;98332.22;5046168;28;20236;-37
2021/09/21 03:11:45;;;;;;;9.77;7.07;;;13.90;71.20;;;14.12;57.22;98332.22;5047765;28;20053;-37
2021/09/21 03:19:28;;;;;;;10.00;7.13;;;13.90;72.00;;;14.07;57.26;98350.63;5046619;28;20378;-36
2021/09/21 03:21:57;;;;;;;8.50;7.13;;;13.80;71.10;;;14.04;57.30;98360.84;5046287;28;20052;-37
2021/09/21 03:24:25;;;;;;;8.52;6.13;;;13.80;71.10;;;13.99;57.49;98361.31;5045827;28;20408;-36
2021/09/21 03:26:52;;;;;;;9.77;7.35;;;13.80;70.90;;;13.98;57.46;98356.97;5046313;28;20638;-36
2021/09/21 03:29:20;;;;;;;9.25;7.15;;;13.80;71.00;;;13.99;57.26;98358.66;5046510;28;20802;-36
2021/09/21 03:31:48;;;;;;;9.88;7.82;;;13.80;71.00;;;13.96;57.45;98356.31;5045926;28;20055;-37
2021/09/21 03:34:16;;;;;;;9.00;7.25;;;13.80;71.40;;;13.96;57.52;98365.19;5044145;28;20048;-37
2021/09/21 03:36:44;;;;;;;9.82;7.22;;;13.80;71.50;;;13.94;57.24;98372.53;5046436;28;20049;-36
2021/09/21 03:39:12;;;;;;;9.10;7.10;;;13.70;71.30;;;13.93;57.27;98372.69;5045549;28;20351;-37
2021/09/21 03:41:40;;;;;;;10.60;7.53;;;13.70;71.20;;;13.91;57.45;98367.50;5046204;28;20251;-37
2021/09/21 03:44:08;;;;;;;8.88;7.30;;;13.70;71.10;;;13.90;57.48;98368.50;5046395;28;20393;-37
2021/09/21 03:46:36;;;;;;;8.80;7.65;;;13.70;71.20;;;13.89;57.53;98382.06;5042218;28;20079;-37
2021/09/21 03:49:04;;;;;;;7.72;6.93;;;13.70;71.30;;;13.82;57.45;98379.19;5044505;28;20051;-37
2021/09/21 03:51:31;;;;;;;10.35;7.85;;;13.60;71.00;;;13.71;57.15;98377.66;5047745;28;20067;-37
2021/09/21 03:53:59;;;;;;;10.23;7.10;;;13.40;71.90;;;13.68;57.33;98372.63;5044979;28;20057;-37
2021/09/21 03:56:27;;;;;;;9.02;6.72;;;13.30;72.10;;;13.62;57.52;98381.31;5046213;28;20060;-37
2021/09/21 03:58:57;;;;;;;9.30;7.35;;;13.30;72.10;;;13.61;57.51;98382.34;5046347;28;20095;-37
2021/09/21 04:01:25;;;;;;;10.45;7.68;;;13.20;72.20;;;13.59;57.59;98385.16;5046682;28;20056;-37
2021/09/21 04:03:53;;;;;;;10.38;7.43;;;13.30;72.20;;;13.59;57.72;98387.00;5045784;28;20082;-37
2021/09/21 04:06:21;;;;;;;7.97;6.82;;;13.30;72.20;;;13.60;57.75;98380.63;5044262;28;20063;-37
2021/09/21 04:08:50;;;;;;;9.10;7.43;;;13.40;72.00;;;13.63;57.89;98377.66;5044858;28;20342;-37
2021/09/21 04:11:19;;;;;;;8.40;7.05;;;13.40;72.80;;;13.66;57.60;98381.84;5045519;28;20043;-37
2021/09/21 04:13:47;;;;;;;10.57;8.48;;;13.40;71.60;;;13.66;57.55;98379.97;5045593;28;20061;-37
2021/09/21 04:16:17;;;;;;;11.02;8.02;;;13.40;71.40;;;13.62;57.41;98383.16;5045111;28;20063;-37
2021/09/21 04:18:46;;;;;;;10.60;7.18;;;13.40;71.30;;;13.47;57.44;98397.13;5044158;28;20053;-37
2021/09/21 04:21:15;;;;;;;11.68;9.40;;;13.10;71.80;;;13.43;57.54;98386.94;5044997;28;20057;-37
2021/09/21 04:23:43;;;;;;;7.95;7.07;;;13.10;72.20;;;13.43;57.89;98397.63;5045257;28;20052;-37
2021/09/21 04:26:10;;;;;;;9.90;6.88;;;13.10;72.40;;;13.42;57.83;98391.44;5045808;28;20304;-37
2021/09/21 04:28:40;;;;;;;11.05;7.43;;;13.10;72.30;;;13.47;57.86;98396.31;5044668;28;20507;-37
2021/09/21 04:31:11;;;;;;;8.10;6.55;;;13.20;72.10;;;13.49;57.70;98410.34;5045790;28;20061;-37
2021/09/21 04:33:41;;;;;;;9.23;7.43;;;13.20;71.70;;;13.52;57.63;98402.84;5045023;28;20306;-37
2021/09/21 04:36:11;;;;;;;9.88;6.90;;;13.30;71.60;;;13.51;57.71;98408.34;5044086;28;20524;-37
2021/09/21 04:38:40;;;;;;;8.60;7.22;;;13.30;71.50;;;13.45;57.60;98420.53;5045392;28;20122;-37
2021/09/21 04:41:08;;;;;;;9.27;7.47;;;13.20;71.60;;;13.45;57.71;98425.06;5044840;28;20049;-37
2021/09/21 04:43:37;;;;;;;7.68;6.60;;;13.20;71.90;;;13.42;57.58;98436.09;5044410;28;20059;-37
2021/09/21 04:46:07;;;;;;;9.27;7.00;;;13.10;71.90;;;13.39;57.76;98440.72;5044325;28;20053;-37
2021/09/21 04:48:36;;;;;;;10.23;8.15;;;13.10;72.20;;;13.43;57.78;98445.78;5045435;28;20063;-37
2021/09/21 04:51:05;;;;;;;9.48;7.80;;;13.20;72.10;;;13.43;57.72;98451.13;5045177;28;20041;-37
2021/09/21 04:53:33;;;;;;;10.05;7.78;;;13.20;71.90;;;13.42;57.75;98455.66;5045154;28;20244;-37
2021/09/21 04:56:01;;;;;;;8.70;7.60;;;13.20;71.90;;;13.43;57.86;98462.66;5044156;28;20267;-37
2021/09/21 04:58:29;;;;;;;9.88;7.78;;;13.20;72.00;;;13.43;57.71;98462.66;5044372;28;20055;-37
2021/09/21 05:00:56;;;;;;;9.55;7.35;;;13.20;72.00;;;13.44;57.69;98474.22;5045602;28;20052;-37
2021/09/21 05:03:24;;;;;;;9.38;6.65;;;13.20;72.10;;;13.41;57.49;98469.16;5046638;28;20768;-37
2021/09/21 05:05:52;;;;;;;8.88;7.40;;;13.10;72.10;;;13.39;57.78;98475.50;5044679;28;20057;-37
2021/09/21 05:08:20;;;;;;;8.93;7.03;;;13.10;72.20;;;13.38;57.76;98489.06;5043829;28;20059;-37
2021/09/21 05:10:48;;;;;;;8.10;7.10;;;13.10;71.80;;;13.34;57.78;98491.19;5044485;28;20251;-37
2021/09/21 05:13:16;;;;;;;9.57;8.05;;;13.10;72.20;;;13.35;57.73;98502.72;5042959;28;20061;-37
2021/09/21 05:15:45;;;;;;;8.75;7.63;;;13.10;72.30;;;13.38;58.02;98499.75;5044608;28;20045;-37
2021/09/21 05:18:13;;;;;;;9.60;7.03;;;13.10;72.30;;;13.41;57.90;98501.25;5043725;28;20057;-37
2021/09/21 05:20:41;;;;;;;9.75;7.28;;;13.20;72.10;;;13.42;58.16;98497.59;5044185;28;20057;-37
2021/09/21 05:23:08;;;;;;;12.63;9.35;;;13.20;72.00;;;13.44;57.86;98506.31;5043290;28;20044;-37
2021/09/21 05:25:37;;;;;;;9.65;6.63;;;13.30;71.80;;;13.42;57.83;98506.47;5044904;28;20397;-37
2021/09/21 05:28:05;;;;;;;8.40;6.88;;;13.20;71.50;;;13.41;57.84;98517.31;5048487;28;20055;-37
2021/09/21 05:30:33;;;;;;;10.77;7.22;;;13.20;71.80;;;13.43;57.72;98515.31;5049315;28;20064;-37
2021/09/21 05:33:00;;;;;;;8.43;6.40;;;13.20;71.80;;;13.42;57.90;98516.34;5048238;28;20053;-37
2021/09/21 05:35:28;;;;;;;9.27;7.25;;;13.20;71.80;;;13.44;57.96;98507.13;5048853;28;20377;-37
2021/09/21 05:37:56;;;;;;;8.93;6.80;;;13.20;71.90;;;13.46;58.00;98510.50;5048489;28;20052;-37
2021/09/21 05:40:26;;;;;;;8.52;7.35;;;13.20;71.80;;;13.47;57.94;98505.97;5047701;28;20375;-37
2021/09/21 05:42:54;;;;;;;10.15;7.25;;;13.30;71.90;;;13.47;57.81;98512.16;5047923;28;20083;-37
2021/09/21 05:45:24;;;;;;;15.15;7.50;;;13.30;71.70;;;13.47;57.75;98505.97;5048228;28;20067;-37
2021/09/21 05:47:52;;;;;;;9.20;7.53;;;13.30;71.60;;;13.47;57.53;98512.16;5047607;28;20377;-37
2021/09/21 05:50:21;;;;;;;9.70;7.78;;;13.30;71.50;;;13.50;57.69;98508.34;5048904;28;20064;-36
2021/09/21 05:52:49;;;;;;;8.80;6.68;;;13.40;71.10;;;13.53;57.59;98510.69;5047102;28;20053;-36
2021/09/21 05:55:17;;;;;;;10.35;7.00;;;13.50;70.90;;;13.58;57.43;98508.38;5047470;28;20055;-36
2021/09/21 05:57:45;;;;;;;7.90;7.10;;;13.50;70.60;;;13.61;57.63;98516.09;5047116;28;20123;-37
2021/09/21 06:00:14;;;;;;;10.15;7.15;;;13.50;70.60;;;13.59;57.31;98505.56;5047559;28;20275;-37
2021/09/21 06:02:42;;;;;;;9.05;7.00;;;13.50;70.40;;;13.62;57.04;98508.91;5047675;28;20053;-37
2021/09/21 06:05:11;;;;;;;15.35;7.82;;;13.50;70.30;;;13.64;57.54;98493.53;5048526;28;20067;-37
2021/09/21 06:07:51;;;;;;;7.88;6.88;;;13.50;70.50;;;13.63;57.38;98507.91;5047060;28;20063;-37
2021/09/21 06:10:22;;;;;;;10.15;7.47;;;13.50;70.30;;;13.66;57.20;98507.59;5047254;28;20049;-37
2021/09/21 06:12:50;;;;;;;9.20;7.43;;;13.50;70.60;;;13.66;57.06;98510.25;5047294;28;20045;-37
2021/09/21 06:15:20;;;;;;;11.15;7.57;;;13.60;70.30;;;13.66;57.11;98518.28;5047013;28;20045;-37
2021/09/21 06:17:49;;;;;;;8.90;7.65;;;13.60;70.10;;;13.63;57.12;98524.81;5047265;28;20343;-37
2021/09/21 06:20:18;;;;;;;10.68;8.05;;;13.50;70.50;;;13.57;57.16;98536.97;5046466;28;20064;-37
2021/09/21 06:22:47;;;;;;;11.75;7.95;;;13.40;70.60;;;13.54;57.34;98537.28;5048068;28;20060;-37
2021/09/21 06:25:16;;;;;;;10.20;7.75;;;13.30;71.20;;;13.51;57.49;98529.59;5048333;28;20048;-37
2021/09/21 06:27:45;;;;;;;9.20;7.32;;;13.40;71.20;;;13.54;57.51;98531.94;5048363;28;20067;-37
2021/09/21 06:30:16;;;;;;;9.82;8.00;;;13.50;70.90;;;13.59;57.64;98547.53;5048089;28;20072;-37
2021/09/21 06:32:46;;;;;;;10.07;8.27;;;13.50;71.00;;;13.62;57.67;98554.38;5045997;28;20247;-37
2021/09/21 06:35:14;;;;;;;8.90;7.75;;;13.60;70.80;;;13.52;57.47;98565.19;5047474;28;20061;-37
2021/09/21 06:37:43;;;;;;;14.48;8.52;;;13.40;70.80;;;13.41;57.78;98573.47;5047068;28;20059;-37
2021/09/21 06:40:13;;;;;;;8.23;7.43;;;13.20;71.80;;;13.39;57.76;98570.94;5046986;28;20053;-37
2021/09/21 06:42:43;;;;;;;8.57;7.28;;;13.10;72.30;;;13.44;58.13;98579.34;5065537;28;20057;-37
2021/09/21 06:45:16;;;;;;;9.93;7.78;;;13.20;72.50;;;13.51;58.03;98575.06;5065004;28;20056;-37
2021/09/21 06:47:44;;;;;;;10.45;8.40;;;13.40;72.20;;;13.50;58.06;98581.41;5064715;28;20068;-37
2021/09/21 06:50:13;;;;;;;11.85;8.13;;;13.30;71.80;;;13.54;58.06;98587.28;5065570;28;20362;-37
2021/09/21 06:52:41;;;;;;;12.40;8.82;;;13.50;71.60;;;13.49;57.65;98581.56;5065160;28;20357;-37
2021/09/21 06:55:11;;;;;;;12.50;8.45;;;13.40;71.40;;;13.48;57.84;98582.56;5065971;28;20224;-37
2021/09/21 06:57:40;;;;;;;13.15;7.93;;;13.30;71.90;;;13.46;57.97;98582.72;5065716;28;20049;-37
2021/09/21 07:00:10;;;;;;;8.82;7.70;;;13.30;71.70;;;13.47;57.84;98589.72;5066904;28;20339;-37
2021/09/21 07:02:39;;;;;;;11.57;8.80;;;13.30;71.50;;;13.50;57.90;98592.09;5067500;28;20246;-37
2021/09/21 07:05:10;;;;;;;9.75;8.23;;;13.40;71.20;;;13.52;57.88;98610.69;5066432;28;20542;-37
2021/09/21 07:07:49;;;;;;;15.57;8.07;;;13.50;71.50;;;13.58;58.08;98624.25;5065867;28;20055;-37
2021/09/21 07:10:19;;;;;;;9.98;8.13;;;13.50;71.40;;;13.58;57.71;98620.75;5066521;28;20048;-37
2021/09/21 07:12:48;;;;;;;11.50;8.90;;;13.50;71.10;;;13.52;57.67;98618.69;5066506;28;20060;-37
2021/09/21 07:15:21;;;;;;;10.07;8.27;;;13.40;71.30;;;13.56;57.81;98633.44;5064996;28;20056;-37
2021/09/21 07:17:55;;;;;;;11.93;8.13;;;13.40;71.20;;;13.52;57.83;98632.06;5065434;28;20052;-37
2021/09/21 07:20:25;;;;;;;9.77;8.63;;;13.40;71.70;;;13.53;58.22;98631.06;5065627;28;20056;-37
2021/09/21 07:22:53;;;;;;;9.02;7.88;;;13.40;72.40;;;13.54;58.41;98636.25;5065889;28;20385;-37
2021/09/21 07:25:22;;;;;;;9.45;7.85;;;13.40;72.10;;;13.51;57.86;98633.06;5066015;28;20078;-37
2021/09/21 07:27:54;;;;;;;10.48;7.93;;;13.40;71.90;;;13.48;58.43;98639.56;5065646;28;20056;-37
2021/09/21 07:30:22;;;;;;;12.13;8.15;;;13.30;72.50;;;13.47;58.51;98640.56;5065364;28;20079;-37
2021/09/21 07:32:50;;;;;;;11.75;9.05;;;13.30;72.90;;;13.50;58.35;98642.09;5065838;28;20254;-36
2021/09/21 07:35:18;;;;;;;13.18;8.52;;;13.40;72.50;;;13.56;58.44;98646.81;5065672;28;20074;-37
2021/09/21 07:37:46;;;;;;;11.02;8.65;;;13.40;72.40;;;13.58;58.17;98653.69;5066319;28;20048;-36
2021/09/21 07:40:16;;;;;;;10.00;7.85;;;13.50;71.90;;;13.64;58.00;98643.38;5065831;28;20055;-36
2021/09/21 07:42:44;;;;;;;8.90;7.32;;;13.60;71.60;;;13.65;57.93;98651.25;5064884;28;20044;-36
2021/09/21 07:45:12;;;;;;;10.02;8.10;;;13.50;71.10;;;13.61;57.75;98652.56;5065139;28;20054;-36
2021/09/21 07:47:40;;;;;;;10.32;7.95;;;13.50;71.30;;;13.63;57.86;98642.53;5065686;28;20056;-36
2021/09/21 07:50:11;;;;;;;9.65;7.90;;;13.50;71.40;;;13.67;57.73;98648.41;5065022;28;20354;-36
2021/09/21 07:52:40;;;;;;;10.82;8.43;;;13.60;71.30;;;13.72;57.68;98649.59;5064724;28;20054;-37
2021/09/21 07:55:09;;;;;;;12.23;7.57;;;13.70;71.20;;;13.72;57.62;98654.94;5065630;28;20051;-37
2021/09/21 07:57:38;;;;;;;10.75;7.90;;;13.60;70.70;;;13.65;57.46;98661.09;5064186;28;20044;-37
2021/09/21 08:00:10;;;;;;;12.20;8.93;;;13.50;70.60;;;13.58;57.57;98661.72;5067473;28;20250;-37
2021/09/21 08:02:42;;;;;;;11.23;8.60;;;13.40;71.40;;;13.57;57.74;98673.41;5070150;28;20048;-36
2021/09/21 08:05:12;;;;;;;10.20;8.20;;;13.40;71.90;;;13.60;57.84;98674.94;5074534;28;20074;-37
2021/09/21 08:07:42;;;;;;;11.75;8.63;;;13.40;71.70;;;13.63;57.79;98665.75;5072950;28;20042;-36
2021/09/21 08:10:11;;;;;;;9.55;7.95;;;13.50;71.50;;;13.62;57.38;98672.94;5075595;28;20129;-37
2021/09/21 08:12:46;;;;;;;10.02;7.63;;;13.50;71.00;;;13.70;57.62;98667.66;5073694;28;20046;-37
2021/09/21 08:15:14;;;;;;;9.45;7.78;;;13.60;70.70;;;13.75;57.28;98667.19;5073738;28;20056;-37
2021/09/21 08:17:42;;;;;;;11.82;8.18;;;13.70;69.60;;;13.77;57.35;98673.22;5067648;28;20044;-37
2021/09/21 08:20:13;;;;;;;9.98;7.63;;;13.70;70.40;;;13.76;56.59;98669.72;5063079;28;20049;-37
2021/09/21 08:22:41;;;;;;;10.07;8.18;;;13.70;70.00;;;13.79;56.92;98677.41;5065535;28;20062;-36
2021/09/21 08:25:12;;;;;;;9.57;7.50;;;13.70;69.80;;;13.82;57.20;98684.28;5064942;28;20381;-36
2021/09/21 08:27:40;;;;;;;11.23;7.38;;;13.70;69.70;;;13.90;56.33;98675.47;5064364;28;20056;-36
2021/09/21 08:30:30;;;;;;;9.00;7.05;;;13.90;68.60;;;13.98;55.88;98680.91;5065826;28;20236;-37
2021/09/21 08:32:59;;;;;;;9.43;7.28;;;14.10;68.10;;;14.03;56.04;98670.53;5064882;28;20052;-37
2021/09/21 08:35:28;;;;;;;9.57;7.93;;;14.10;67.70;;;14.11;55.64;98672.44;5064385;28;20044;-37
2021/09/21 08:37:57;;;;;;;8.48;7.30;;;14.10;67.00;;;14.17;55.03;98675.31;5063676;28;20048;-37
2021/09/21 08:40:25;;;;;;;8.55;6.57;;;14.20;66.20;;;14.24;54.64;98677.38;5063451;28;20059;-37
2021/09/21 08:42:53;;;;;;;8.75;5.95;;;14.30;65.70;;;14.28;54.60;98682.22;5064646;28;20059;-37
2021/09/21 08:45:21;;;;;;;7.50;6.43;;;14.40;65.60;;;14.37;54.17;98691.16;5065014;28;20063;-37
2021/09/21 08:47:49;;;;;;;9.30;6.70;;;14.50;65.10;;;14.43;53.90;98693.19;5066220;28;20074;-37
2021/09/21 08:50:18;;;;;;;8.45;6.32;;;14.60;64.40;;;14.45;52.92;98699.25;5064503;28;20061;-37
2021/09/21 08:52:47;;;;;;;8.32;6.43;;;14.60;62.40;;;14.44;51.75;98704.75;5064612;28;20057;-37
2021/09/21 08:55:16;;;;;;;7.13;6.18;;;14.50;59.50;;;14.46;52.06;98706.28;5063033;28;20258;-37
2021/09/21 08:57:45;;;;;;;8.32;6.38;;;14.50;62.10;;;14.52;52.26;98702.97;5065282;28;20052;-37
2021/09/21 09:00:26;;;;;;;9.57;6.93;;;14.60;62.20;;;14.60;52.48;98718.28;5065595;28;20056;-37
2021/09/21 09:03:12;;;;;;;9.77;7.65;;;14.70;60.50;;;14.66;52.82;98712.25;5066437;28;20062;-37
2021/09/21 09:05:50;;;;;;;11.38;6.88;;;14.70;61.90;;;14.64;51.70;98711.59;5069123;28;20064;-37
2021/09/21 09:08:35;;;;;;;9.07;6.10;;;14.70;60.80;;;14.62;49.90;98715.41;5068680;28;20056;-37
2021/09/21 09:11:14;;;;;;;7.30;6.45;;;14.70;57.70;;;14.55;50.00;98710.66;5067672;28;20067;-37
2021/09/21 09:13:44;;;;;;;6.63;5.72;;;14.50;58.40;;;14.57;50.45;98710.53;5069266;28;20365;-37
2021/09/21 09:16:15;;;;;;;7.00;6.00;;;14.60;60.30;;;14.63;51.02;98714.41;5068801;28;20058;-37
2021/09/21 09:18:46;;;;;;;7.03;5.22;;;14.70;60.60;;;14.69;50.89;98716.44;5069793;28;20050;-37
2021/09/21 09:21:18;;;;;;;8.32;6.30;;;14.70;59.90;;;14.58;48.66;98728.31;5068612;28;20052;-37
2021/09/21 09:23:53;;;;;;;6.95;5.53;;;14.60;56.60;;;14.52;47.86;98727.06;5068162;28;20040;-37
2021/09/21 09:26:24;;;;;;;9.38;6.25;;;14.50;57.00;;;14.57;49.74;98723.94;5067550;28;20255;-37
2021/09/21 09:28:55;;;;;;;8.27;5.88;;;14.50;59.30;;;14.64;49.97;98711.59;5066003;28;20060;-37
2021/09/21 09:31:30;;;;;;;6.60;5.75;;;14.60;59.20;;;14.71;48.89;98717.13;5068153;28;20351;-37
2021/09/21 09:34:21;;;;;;;5.88;5.25;;;14.80;58.60;;;14.75;49.47;98711.31;5069179;28;20060;-37
2021/09/21 09:36:53;;;;;;;10.77;7.38;;;14.90;57.70;;;14.72;48.64;98708.09;5068717;28;20044;-37
2021/09/21 09:39:29;;;;;;;8.30;6.47;;;14.70;56.40;;;14.64;48.84;98710.75;5068666;28;20056;-37
2021/09/21 09:42:00;;;;;;;6.53;5.40;;;14.50;58.00;;;14.61;48.81;98698.50;5068914;28;20056;-37
2021/09/21 09:44:32;;;;;;;8.00;6.22;;;14.50;59.30;;;14.67;49.20;98719.28;5067373;28;20082;-37
2021/09/21 09:47:04;;;;;;;6.95;5.25;;;14.60;59.10;;;14.74;49.72;98722.19;5065459;28;20062;-37
2021/09/21 09:49:41;;;;;;;8.70;5.60;;;14.70;59.30;;;14.76;48.11;98718.31;5067027;28;20048;-37
2021/09/21 09:52:17;;;;;;;6.82;5.90;;;14.80;56.60;;;14.80;48.09;98707.28;5068840;28;20162;-36
2021/09/21 09:54:47;;;;;;;7.03;4.72;;;14.80;57.20;;;14.75;47.50;98711.31;5067882;28;20110;-37
2021/09/21 09:57:16;;;;;;;6.43;5.25;;;14.80;54.60;;;14.67;47.04;98710.41;5066597;28;20063;-36
2021/09/21 09:59:44;;;;;;;7.10;5.45;;;14.60;54.40;;;14.72;47.98;98718.81;5068199;28;20254;-36
2021/09/21 10:02:12;;;;;;;5.53;4.68;;;14.60;56.80;;;14.68;48.00;98720.97;5067825;28;20078;-36
2021/09/21 10:04:41;;;;;;;7.93;6.15;;;14.60;57.30;;;14.71;48.08;98725.16;5066705;28;20056;-36
2021/09/21 10:07:10;;;;;;;9.10;6.13;;;14.60;56.90;;;14.72;48.39;98727.69;5068405;28;20048;-36
2021/09/21 10:09:38;;;;;;;6.68;5.38;;;14.70;57.90;;;14.82;48.89;98721.38;5066267;28;20060;-37
2021/09/21 10:12:11;;;;;;;7.55;5.47;;;14.80;58.10;;;14.89;48.48;98727.78;5068140;28;20059;-37
2021/09/21 10:14:41;;;;;;;6.07;5.32;;;14.90;57.50;;;14.97;48.56;98735.84;5066599;28;20266;-36
2021/09/21 10:17:09;;;;;;;5.93;5.25;;;15.10;57.40;;;15.03;48.09;98737.03;5066637;28;20061;-36
2021/09/21 10:19:40;;;;;;;6.25;5.47;;;15.10;57.10;;;15.00;47.63;98743.53;5067963;28;20048;-37
2021/09/21 10:22:08;;;;;;;8.65;6.10;;;15.10;55.80;;;15.06;48.36;98747.41;5065812;28;20048;-37
2021/09/21 10:24:48;;;;;;;7.30;6.25;;;15.10;57.30;;;14.99;47.33;98744.56;5066650;28;20067;-36
2021/09/21 10:27:23;;;;;;;6.40;5.22;;;15.10;55.20;;;15.05;47.63;98735.03;5067563;28;20054;-36
2021/09/21 10:30:01;;;;;;;5.43;4.93;;;15.10;56.20;;;15.07;47.25;98738.38;5066542;28;20067;-36
2021/09/21 10:32:29;;;;;;;7.95;5.43;;;15.10;55.60;;;15.05;47.87;98743.91;5066569;28;20061;-36
2021/09/21 10:35:08;;;;;;;7.45;5.70;;;15.10;56.80;;;15.04;47.37;98746.72;5067813;28;20262;-37
2021/09/21 10:37:36;;;;;;;7.43;6.45;;;15.10;56.00;;;15.08;47.88;98745.41;5066473;28;20048;-37
2021/09/21 10:40:07;;;;;;;7.15;6.18;;;15.10;56.70;;;15.16;48.11;98750.81;5066488;28;20064;-37
2021/09/21 10:42:48;;;;;;;6.32;5.43;;;15.20;57.40;;;15.30;48.42;98752.03;5066412;28;20067;-37